EGJJLFBH

Guest
Details From EGJJ - Jersey
To LFBH - La Rochelle Laleu
Flight Number -
Tags generated
Created
Modified
Stats Distance 186 nm / 345 km
Max Altitude 19,100 ft / 5,822 m
Waypoints 3
Social Downloads 0
Likes 0
Share VATSIM

Download

Looking for another format? Having issues loading an existing format? Contact us
Advertisement - Login to hide

Notes

Basic altitude profile: - Ascent Rate: 2500ft/min - Ascent Speed: 250kts - Cruise Altitude: 35000ft - Cruise Speed: 420kts - Descent Rate: 1500ft/min - Descent Speed: 250kts Options: - Use NATs: yes - Use PACOTS: yes - Use low airways: yes - Use high airways: yes

Route

EGJJ REN27 LFBH

ID Type Via Altitude (ft/m) Position (lat/lon) Dist (leg/tot) Name
O EGJJ APT - 0 / 0 49.20796 / -2.19529 - / 0 nm Jersey
REN27 FIX - 19,100 / 5,822 47.62806 / -1.67528 97 / 97 nm
O LFBH APT - 0 / 0 46.17924 / -1.19641 89 / 186 nm La Rochelle Laleu

Altitude Profile

Advertisement - Login to hide

Weather


0- 5 10 15 20 25 30 35+ Temperature / °C

Clouds and Precipitation
Forecast for 2018-12-11 12:00 UTC. Updated an hour ago

Ground ~20,000 ft ~40,000 ft Winds

EGJJ

Details ICAO EGJJ (JER)
Name Jersey
Region United Kingdom
Timezone Europe/Jersey (UTC+0.0)
Stats Elevation 276 ft / 84 m (AMSL)
Location 49.208000° -2.195230°
Runways 1
Magnetic Variation 0.763° W

METAR

EGJJ 111020Z 15013KT 9999 SCT003 BKN004 09/08 Q1025

Decode

TAF

Not found

Departure Runways

ID Width Length Bearing (true/mag) Surface Threshold Overrun Markings Lighting
08 151 ft / 46 m 5,600 ft / 1,707 m 82.74° / 83.50° ASPHALT 190 ft / 58 m 0 ft / 0 m UK-PREC-APP CENTERLINE EDGE THRESHOLD CALVERT TDZ REIL-OMNI
26 151 ft / 46 m 5,600 ft / 1,707 m 262.76° / 263.52° ASPHALT 318 ft / 97 m 0 ft / 0 m UK-PREC-APP CENTERLINE EDGE THRESHOLD CALVERT-ILS TDZ REIL-OMNI

LFBH

Details ICAO LFBH (LRH)
Name La Rochelle Laleu
Region France
Timezone Europe/Paris (UTC+1.0)
Stats Elevation 74 ft / 23 m (AMSL)
Location 46.179200° -1.196360°
Runways 1
Magnetic Variation 0.172° W

METAR

LFBH 111030Z AUTO 15006KT CAVOK 08/06 Q1025 NOSIG

Decode

TAF

TAF LFBH 110500Z 1106/1206 11010KT CAVOK BECMG 1202/1204 4500 -RA PROB40 1204/1206 BKN003

Decode

Destination Runways

ID Width Length Bearing (true/mag) Surface Threshold Overrun Markings Lighting
09 148 ft / 45 m 7,383 ft / 2,250 m 92.43° / 92.60° ASPHALT 1,033 ft / 315 m 0 ft / 0 m APP EDGE THRESHOLD ALSF-I REIL-OMNI
27 148 ft / 45 m 7,383 ft / 2,250 m 272.45° / 272.62° ASPHALT 1,532 ft / 467 m 0 ft / 0 m PREC-APP EDGE THRESHOLD MALS REIL-OMNI

Approach Navaids

Runway Type Ident Frequency Range Bearing (true/mag) Slope Elevation
27 GS RL 109.55 MHz 10 nm / 19 km 272.44° / 272.61 ° 3.20° 74 ft / 23 m (AMSL)
27 DME RL 109.55 MHz 18 nm / 33 km - - 66 ft / 20 m (AMSL)
27 LOC-ILS RL 109.55 MHz 18 nm / 33 km 272.44° / 272.61 ° - 74 ft / 23 m (AMSL)